Terminal Aerodrome Forecast
Issued by NWS

Home | Current Version | Previous Version | Text Only | Print | Product List | Glossary On
Versions: 1 2 3 4 5 6 7 8 9 10 11 12
000
FTUS45 KREV 151720
TAFRNO
TAF
KRNO 151720Z 1518/1618 VRB03KT P6SM SCT250
     FM160000 29006KT P6SM BKN160 OVC200
     FM160600 34006KT P6SM VCSH SCT030 BKN040
     FM160800 35010G16KT P6SM VCSH SCT025 BKN040
     FM161000 34010G16KT P6SM -SN SCT020 BKN035
     FM161300 02012G22KT P6SM SCT020=

USA.gov is the U.S. government's official web portal to all federal, state and local government web resources and services.